createdAt,value
2019-04-27T00:01:10.560Z,80.40
2019-04-27T00:03:54.523Z,80.50
2019-04-27T00:06:23.781Z,80.50
2019-04-27T00:08:53.827Z,80.10
2019-04-27T00:11:37.372Z,80.40
2019-04-27T00:14:05.258Z,80.40
2019-04-27T00:16:53.655Z,80.20
2019-04-27T00:19:40.109Z,80.60
2019-04-27T00:22:14.509Z,80.30
2019-04-27T00:24:44.057Z,80.10
2019-04-27T00:27:11.049Z,80.30
2019-04-27T00:29:38.539Z,80.30
2019-04-27T00:32:07.188Z,80.20
2019-04-27T00:34:35.079Z,80.00
2019-04-27T00:37:09.804Z,80.10
2019-04-27T00:40:00.455Z,79.70
2019-04-27T00:42:28.364Z,79.50
2019-04-27T00:44:56.261Z,79.50
2019-04-27T00:47:24.006Z,79.50
2019-04-27T00:49:52.626Z,79.00
2019-04-27T00:52:23.924Z,79.10
2019-04-27T00:54:51.140Z,78.90
2019-04-27T00:57:44.011Z,78.50
2019-04-27T01:00:35.072Z,78.70
2019-04-27T01:03:16.215Z,78.60
2019-04-27T01:05:43.187Z,78.30
2019-04-27T01:08:10.488Z,78.40
2019-04-27T01:10:37.767Z,78.50
2019-04-27T01:13:05.173Z,78.90
2019-04-27T01:15:33.941Z,78.90
2019-04-27T01:18:11.989Z,79.20
2019-04-27T01:20:32.620Z,78.70
2019-04-27T01:22:59.725Z,78.40
2019-04-27T01:25:40.534Z,78.30
2019-04-27T01:28:23.879Z,78.20
2019-04-27T01:30:54.999Z,78.30
2019-04-27T01:33:24.598Z,78.60
2019-04-27T01:35:52.019Z,78.30
2019-04-27T01:38:19.404Z,78.40
2019-04-27T01:40:47.285Z,78.10
2019-04-27T01:43:21.270Z,78.40
2019-04-27T01:45:51.607Z,78.60
2019-04-27T01:48:23.877Z,79.10
2019-04-27T01:50:49.216Z,78.60
2019-04-27T01:53:16.919Z,78.70
2019-04-27T01:55:44.739Z,78.60
2019-04-27T01:58:12.220Z,78.80
2019-04-27T02:00:50.116Z,78.90
2019-04-27T02:03:21.694Z,78.80
2019-04-27T02:05:53.043Z,78.40
2019-04-27T02:08:20.127Z,78.50
2019-04-27T02:10:49.614Z,78.80
2019-04-27T02:13:18.889Z,78.80
2019-04-27T02:15:46.364Z,78.30
2019-04-27T02:18:14.015Z,78.70
2019-04-27T02:20:41.040Z,78.00
2019-04-27T02:23:09.169Z,77.90
2019-04-27T02:25:39.427Z,77.60
2019-04-27T02:28:17.043Z,77.20
2019-04-27T02:31:14.476Z,76.80
2019-04-27T02:34:00.346Z,76.60
2019-04-27T02:36:30.543Z,75.80
2019-04-27T02:38:59.556Z,75.50
2019-04-27T02:41:26.699Z,75.60
2019-04-27T02:44:13.621Z,75.50
2019-04-27T02:46:41.575Z,75.70
2019-04-27T02:49:10.531Z,75.20
2019-04-27T02:51:45.040Z,75.20
2019-04-27T02:54:12.936Z,74.90
2019-04-27T02:56:40.725Z,75.20
2019-04-27T02:59:11.501Z,75.70
2019-04-27T03:01:46.758Z,75.50
2019-04-27T03:04:13.711Z,75.10
2019-04-27T03:06:41.178Z,74.40
2019-04-27T03:09:10.406Z,74.30
2019-04-27T03:11:39.602Z,74.70
2019-04-27T03:14:34.796Z,74.30
2019-04-27T03:17:14.311Z,74.50
2019-04-27T03:19:50.078Z,74.40
2019-04-27T03:22:24.211Z,74.40
2019-04-27T03:25:26.960Z,74.10
2019-04-27T03:28:02.083Z,74.50
2019-04-27T03:30:31.815Z,74.10
2019-04-27T03:33:02.773Z,74.30
2019-04-27T03:35:35.328Z,74.30
2019-04-27T03:38:00.470Z,74.40
2019-04-27T03:40:30.683Z,74.40
2019-04-27T03:43:02.396Z,74.70
2019-04-27T03:45:30.107Z,74.30
2019-04-27T03:48:00.380Z,74.50
2019-04-27T03:50:33.189Z,74.30
2019-04-27T03:53:32.756Z,74.30
2019-04-27T03:56:10.823Z,74.20
2019-04-27T03:58:42.213Z,74.10
2019-04-27T04:01:11.241Z,74.50
2019-04-27T04:03:39.559Z,74.00
2019-04-27T04:06:07.035Z,73.90
2019-04-27T04:08:34.315Z,73.90
2019-04-27T04:11:10.287Z,73.90
2019-04-27T04:13:43.278Z,74.00
2019-04-27T04:16:19.678Z,73.80
2019-04-27T04:19:05.236Z,73.80
2019-04-27T04:21:32.367Z,74.20
2019-04-27T04:24:01.272Z,74.00
2019-04-27T04:26:32.840Z,73.80
2019-04-27T04:28:59.918Z,73.50
2019-04-27T04:31:32.148Z,73.90
2019-04-27T04:33:55.992Z,74.30
2019-04-27T04:36:23.420Z,74.20
2019-04-27T04:38:51.285Z,74.30
2019-04-27T04:41:42.856Z,74.50
2019-04-27T04:44:12.549Z,74.00
2019-04-27T04:46:52.988Z,74.50
2019-04-27T04:49:20.884Z,74.60
2019-04-27T04:51:50.289Z,74.60
2019-04-27T04:54:19.621Z,74.40
2019-04-27T04:56:46.654Z,74.70
2019-04-27T04:59:14.644Z,75.00
2019-04-27T05:01:42.004Z,75.00
2019-04-27T05:04:09.164Z,75.00
2019-04-27T05:06:36.771Z,75.20
2019-04-27T05:09:05.044Z,75.70
2019-04-27T05:11:33.228Z,75.60
2019-04-27T05:14:01.502Z,75.90
2019-04-27T05:16:29.153Z,75.60
2019-04-27T05:18:56.295Z,75.70
2019-04-27T05:21:41.440Z,75.90
2019-04-27T05:24:09.360Z,76.40
2019-04-27T05:26:37.423Z,76.60
2019-04-27T05:29:04.659Z,76.80
2019-04-27T05:31:32.227Z,77.50
2019-04-27T05:33:59.711Z,77.70
2019-04-27T05:36:29.505Z,78.00
2019-04-27T05:38:56.781Z,78.00
2019-04-27T05:41:23.788Z,78.60
2019-04-27T05:44:12.752Z,78.60
2019-04-27T05:46:59.347Z,78.60
2019-04-27T05:49:41.084Z,78.50
2019-04-27T05:52:26.253Z,78.30
2019-04-27T05:54:54.403Z,78.50
2019-04-27T05:57:21.996Z,78.20
2019-04-27T05:59:51.371Z,78.20
2019-04-27T06:02:20.326Z,78.10
2019-04-27T06:04:49.712Z,77.90
2019-04-27T06:07:19.313Z,78.00
2019-04-27T06:09:49.199Z,78.40
2019-04-27T06:12:16.703Z,78.60
2019-04-27T06:14:44.247Z,78.30
2019-04-27T06:17:11.247Z,77.70
2019-04-27T06:19:39.122Z,77.30
2019-04-27T06:22:06.741Z,77.30
2019-04-27T06:24:34.157Z,77.40
2019-04-27T06:27:01.691Z,77.30
2019-04-27T06:29:29.337Z,78.00
2019-04-27T06:31:59.196Z,77.80
2019-04-27T06:34:28.724Z,78.00
2019-04-27T06:36:55.943Z,78.40
2019-04-27T06:39:23.376Z,78.50
2019-04-27T06:41:51.149Z,78.60
2019-04-27T06:44:19.605Z,78.40
2019-04-27T06:46:48.950Z,78.20
2019-04-27T06:49:16.660Z,77.90
2019-04-27T06:51:43.943Z,78.00
2019-04-27T06:54:12.167Z,77.90
2019-04-27T06:56:39.823Z,77.80
2019-04-27T06:59:08.792Z,78.30
2019-04-27T07:01:36.364Z,79.00
2019-04-27T07:04:03.917Z,78.80
2019-04-27T07:06:31.071Z,78.60
2019-04-27T07:08:59.779Z,78.60
2019-04-27T07:11:29.592Z,78.40
2019-04-27T07:13:56.681Z,78.50
2019-04-27T07:16:23.898Z,77.30
2019-04-27T07:18:51.260Z,77.60
2019-04-27T07:21:24.512Z,77.00
2019-04-27T07:23:59.377Z,77.80
2019-04-27T07:26:27.216Z,77.10
2019-04-27T07:28:55.147Z,77.10
2019-04-27T07:31:23.779Z,76.90
2019-04-27T07:33:51.115Z,76.60
2019-04-27T07:36:18.901Z,77.00
2019-04-27T07:38:46.455Z,77.00
2019-04-27T07:41:13.752Z,77.30
2019-04-27T07:43:46.731Z,76.70
2019-04-27T07:46:14.844Z,76.60
2019-04-27T07:48:42.023Z,76.20
2019-04-27T07:51:10.039Z,76.20
2019-04-27T07:53:39.032Z,76.60
2019-04-27T07:56:09.361Z,76.50
2019-04-27T07:58:36.932Z,76.80
2019-04-27T08:01:06.244Z,76.90
2019-04-27T08:03:34.337Z,76.90
2019-04-27T08:06:02.227Z,76.70
2019-04-27T08:08:29.675Z,77.60
2019-04-27T08:10:56.805Z,77.20
2019-04-27T08:13:23.957Z,77.10
2019-04-27T08:15:51.115Z,76.90
2019-04-27T08:18:18.956Z,76.90
2019-04-27T08:20:46.371Z,76.90
2019-04-27T08:23:14.692Z,77.30
2019-04-27T08:25:42.755Z,77.60
2019-04-27T08:28:35.319Z,77.50
2019-04-27T08:31:15.046Z,77.60
2019-04-27T08:33:42.697Z,77.80
2019-04-27T08:36:09.888Z,77.80
2019-04-27T08:38:38.838Z,77.90
2019-04-27T08:41:05.744Z,78.50
2019-04-27T08:43:35.188Z,79.10
2019-04-27T08:46:02.708Z,79.60
2019-04-27T08:48:34.633Z,79.60
2019-04-27T08:51:00.212Z,79.90
2019-04-27T08:53:27.673Z,80.10
2019-04-27T08:55:54.984Z,80.30
2019-04-27T08:58:22.007Z,80.80
2019-04-27T09:00:49.235Z,81.80
2019-04-27T09:03:16.739Z,82.20
2019-04-27T09:05:43.607Z,82.00
2019-04-27T09:08:25.424Z,82.10
2019-04-27T09:11:08.879Z,82.20
2019-04-27T09:13:43.776Z,81.80
2019-04-27T09:16:57.958Z,81.70
2019-04-27T09:19:25.995Z,82.40
2019-04-27T09:22:12.193Z,82.80
2019-04-27T09:24:32.904Z,83.20
2019-04-27T09:27:00.398Z,83.10
2019-04-27T09:29:29.849Z,83.20
2019-04-27T09:31:59.605Z,83.60
2019-04-27T09:34:27.343Z,83.60
2019-04-27T09:36:56.479Z,83.80
2019-04-27T09:39:26.448Z,84.00
2019-04-27T09:41:53.811Z,83.90
2019-04-27T09:44:21.767Z,84.50
2019-04-27T09:46:49.787Z,85.10
2019-04-27T09:49:17.135Z,85.40
2019-04-27T09:51:47.687Z,85.10
2019-04-27T09:54:15.931Z,85.70
2019-04-27T09:56:46.769Z,84.90
2019-04-27T09:59:16.631Z,85.60
2019-04-27T10:01:46.489Z,84.90
2019-04-27T10:04:15.666Z,84.90
2019-04-27T10:06:46.497Z,84.10
2019-04-27T10:09:16.612Z,84.50
2019-04-27T10:11:43.860Z,84.20
2019-04-27T10:14:16.218Z,84.00
2019-04-27T10:16:44.571Z,83.40
2019-04-27T10:19:12.007Z,84.70
2019-04-27T10:21:41.649Z,83.90
2019-04-27T10:24:09.956Z,83.80
2019-04-27T10:26:39.121Z,84.00
2019-04-27T10:29:06.684Z,83.70
2019-04-27T10:31:34.555Z,83.00
2019-04-27T10:34:01.684Z,82.10
2019-04-27T10:36:38.325Z,82.20
2019-04-27T10:39:09.154Z,81.20
2019-04-27T10:41:37.073Z,81.60
2019-04-27T10:44:07.651Z,81.80
2019-04-27T10:46:36.867Z,81.50
2019-04-27T10:49:05.984Z,81.10
2019-04-27T10:51:33.743Z,80.50
2019-04-27T10:54:01.659Z,81.70
2019-04-27T10:56:29.947Z,81.60
2019-04-27T10:58:57.592Z,79.60
2019-04-27T11:01:25.785Z,78.50
2019-04-27T11:04:13.147Z,80.30
2019-04-27T11:06:43.039Z,80.30
2019-04-27T11:09:11.129Z,79.40
2019-04-27T11:11:39.379Z,79.40
2019-04-27T11:14:07.271Z,78.70
2019-04-27T11:16:37.775Z,79.40
2019-04-27T11:19:06.578Z,79.90
2019-04-27T11:21:33.899Z,80.60
2019-04-27T11:24:02.030Z,80.10
2019-04-27T11:26:29.409Z,80.40
2019-04-27T11:28:57.000Z,80.70
2019-04-27T11:31:26.126Z,81.60
2019-04-27T11:33:56.626Z,81.90
2019-04-27T11:36:52.260Z,82.20
2019-04-27T11:39:21.134Z,83.50
2019-04-27T11:41:48.795Z,83.50
2019-04-27T11:44:17.225Z,84.00
2019-04-27T11:46:45.493Z,83.00
2019-04-27T11:49:15.624Z,83.00
2019-04-27T11:51:42.865Z,83.50
2019-04-27T11:54:09.840Z,83.10
2019-04-27T11:56:36.899Z,82.90
2019-04-27T11:59:04.975Z,83.70
2019-04-27T12:01:32.975Z,84.40
2019-04-27T12:04:00.796Z,84.80
2019-04-27T12:06:28.719Z,85.10
2019-04-27T12:08:55.563Z,85.20
2019-04-27T12:11:23.517Z,85.70
2019-04-27T12:13:50.975Z,84.90
2019-04-27T12:16:20.007Z,85.40
2019-04-27T12:18:49.006Z,86.10
2019-04-27T12:21:17.735Z,86.40
2019-04-27T12:23:44.983Z,86.30
2019-04-27T12:26:27.976Z,86.60
2019-04-27T12:28:56.903Z,87.80
2019-04-27T12:31:35.952Z,87.90
2019-04-27T12:34:03.287Z,87.70
2019-04-27T12:36:30.672Z,88.20
2019-04-27T12:38:58.470Z,87.30
2019-04-27T12:41:26.681Z,87.60
2019-04-27T12:43:56.091Z,87.00
2019-04-27T12:46:23.992Z,88.00
2019-04-27T12:48:51.405Z,86.80
2019-04-27T12:51:20.888Z,87.30
2019-04-27T12:53:55.976Z,88.00
2019-04-27T12:56:48.816Z,87.40
2019-04-27T12:59:36.566Z,87.70
2019-04-27T13:02:06.198Z,87.80
2019-04-27T13:04:34.319Z,86.70
2019-04-27T13:07:02.048Z,86.70
2019-04-27T13:09:29.952Z,86.40
2019-04-27T13:11:57.731Z,86.70
2019-04-27T13:14:26.399Z,87.00
2019-04-27T13:16:56.038Z,87.10
2019-04-27T13:19:25.845Z,86.30
2019-04-27T13:21:52.811Z,86.40
2019-04-27T13:24:21.308Z,87.90
2019-04-27T13:26:48.435Z,90.30
2019-04-27T13:29:16.639Z,91.10
2019-04-27T13:31:44.600Z,90.10
2019-04-27T13:34:12.959Z,90.80
2019-04-27T13:36:40.775Z,90.40
2019-04-27T13:39:07.924Z,90.30
2019-04-27T13:41:36.515Z,89.90
2019-04-27T13:44:03.755Z,89.90
2019-04-27T13:46:49.911Z,89.30
2019-04-27T13:49:40.158Z,88.30
2019-04-27T13:52:16.274Z,88.00
2019-04-27T13:54:43.657Z,88.80
2019-04-27T13:57:10.698Z,87.70
2019-04-27T13:59:37.825Z,86.90
2019-04-27T14:02:06.914Z,86.30
2019-04-27T14:04:34.936Z,87.20
2019-04-27T14:07:03.161Z,85.60
2019-04-27T14:09:31.349Z,85.00
2019-04-27T14:12:11.926Z,85.70
2019-04-27T14:14:41.649Z,84.80
2019-04-27T14:17:11.123Z,83.90
2019-04-27T14:19:41.796Z,83.40
2019-04-27T14:22:12.323Z,83.30
2019-04-27T14:24:41.361Z,82.50
2019-04-27T14:27:13.250Z,82.50
2019-04-27T14:29:42.821Z,84.20
2019-04-27T14:32:11.913Z,84.00
2019-04-27T14:34:40.187Z,82.70
2019-04-27T14:37:08.656Z,82.30
2019-04-27T14:39:36.716Z,82.30
2019-04-27T14:42:03.809Z,80.70
2019-04-27T14:44:31.652Z,80.30
2019-04-27T14:46:58.912Z,81.70
2019-04-27T14:49:28.943Z,82.90
2019-04-27T14:51:58.481Z,83.70
2019-04-27T14:54:26.783Z,84.20
2019-04-27T14:56:54.838Z,84.00
2019-04-27T14:59:22.928Z,82.60
2019-04-27T15:01:50.243Z,83.30
2019-04-27T15:04:17.268Z,82.80
2019-04-27T15:06:45.622Z,81.40
2019-04-27T15:09:13.431Z,82.10
2019-04-27T15:11:41.944Z,84.70
2019-04-27T15:14:11.075Z,84.50
2019-04-27T15:16:42.167Z,85.10
2019-04-27T15:19:17.843Z,85.40
2019-04-27T15:21:55.850Z,80.30
2019-04-27T15:24:13.649Z,83.00
2019-04-27T15:26:41.477Z,80.00
2019-04-27T15:29:12.032Z,81.50
2019-04-27T15:31:44.733Z,81.80
2019-04-27T15:34:40.036Z,82.70
2019-04-27T15:37:28.172Z,79.20
2019-04-27T15:40:18.629Z,76.70
2019-04-27T15:42:52.974Z,78.40
2019-04-27T15:45:24.302Z,80.90
2019-04-27T15:47:54.545Z,81.50
2019-04-27T15:50:23.423Z,82.90
2019-04-27T15:52:49.432Z,83.40
2019-04-27T15:55:31.809Z,82.00
2019-04-27T15:57:50.057Z,83.70
2019-04-27T16:00:28.786Z,83.10
2019-04-27T16:02:56.664Z,83.90
2019-04-27T16:05:28.670Z,80.60
2019-04-27T16:07:52.843Z,83.10
2019-04-27T16:10:20.170Z,83.80
2019-04-27T16:13:05.859Z,81.90
2019-04-27T16:15:17.720Z,82.80
2019-04-27T16:17:53.286Z,80.30
2019-04-27T16:20:22.426Z,81.50
2019-04-27T16:22:45.759Z,83.20
2019-04-27T16:25:14.004Z,83.10
2019-04-27T16:27:41.419Z,83.40
2019-04-27T16:30:16.193Z,82.10
2019-04-27T16:32:40.332Z,81.40
2019-04-27T16:35:13.773Z,80.70
2019-04-27T16:38:16.120Z,83.70
2019-04-27T16:40:43.655Z,80.70
2019-04-27T16:43:11.140Z,80.50
2019-04-27T16:45:38.911Z,82.70
2019-04-27T16:48:06.311Z,82.80
2019-04-27T16:50:34.680Z,84.10
2019-04-27T16:53:02.772Z,84.70
2019-04-27T16:55:34.136Z,84.30
2019-04-27T16:58:00.164Z,83.80
2019-04-27T17:00:30.205Z,83.70
2019-04-27T17:03:01.385Z,81.80
2019-04-27T17:05:30.822Z,83.30
2019-04-27T17:07:55.375Z,82.00
2019-04-27T17:10:26.447Z,81.70
2019-04-27T17:12:52.652Z,81.10
2019-04-27T17:15:41.822Z,82.10
2019-04-27T17:18:25.816Z,81.50
2019-04-27T17:20:59.344Z,79.80
2019-04-27T17:23:29.180Z,80.80
2019-04-27T17:26:05.811Z,79.40
2019-04-27T17:28:39.237Z,81.10
2019-04-27T17:31:08.555Z,79.00
2019-04-27T17:33:39.455Z,76.70
2019-04-27T17:36:08.031Z,77.80
2019-04-27T17:38:35.151Z,78.20
2019-04-27T17:41:04.743Z,80.00
2019-04-27T17:43:32.588Z,80.20
2019-04-27T17:45:59.704Z,78.50
2019-04-27T17:48:28.827Z,76.40
2019-04-27T17:51:02.623Z,76.90
2019-04-27T17:53:29.880Z,77.10
2019-04-27T17:55:59.593Z,77.40
2019-04-27T17:58:24.024Z,77.00
2019-04-27T18:00:52.051Z,78.50
2019-04-27T18:03:22.538Z,77.00
2019-04-27T18:05:52.139Z,77.40
2019-04-27T18:08:22.867Z,76.90
2019-04-27T18:10:49.151Z,76.40
2019-04-27T18:13:25.506Z,77.00
2019-04-27T18:15:54.078Z,76.20
2019-04-27T18:18:38.015Z,76.10
2019-04-27T18:21:06.897Z,75.70
2019-04-27T18:23:37.191Z,75.80
2019-04-27T18:26:17.482Z,75.50
2019-04-27T18:28:45.797Z,75.60
2019-04-27T18:31:16.073Z,76.00
2019-04-27T18:33:45.991Z,75.70
2019-04-27T18:36:14.572Z,75.50
2019-04-27T18:38:41.720Z,74.90
2019-04-27T18:41:11.593Z,75.40
2019-04-27T18:43:38.901Z,75.70
2019-04-27T18:46:09.053Z,75.10
2019-04-27T18:49:00.455Z,75.50
2019-04-27T18:51:44.411Z,76.00
2019-04-27T18:54:11.412Z,76.60
2019-04-27T18:56:41.636Z,76.80
2019-04-27T18:59:08.425Z,76.40
2019-04-27T19:01:35.704Z,76.10
2019-04-27T19:04:02.843Z,77.00
2019-04-27T19:06:30.347Z,77.70
2019-04-27T19:08:59.106Z,77.30
2019-04-27T19:11:28.914Z,77.70
2019-04-27T19:13:56.937Z,78.40
2019-04-27T19:16:25.964Z,79.00
2019-04-27T19:18:54.336Z,78.90
2019-04-27T19:21:23.356Z,79.80
2019-04-27T19:23:50.661Z,79.60
2019-04-27T19:26:35.708Z,80.50
2019-04-27T19:29:12.923Z,80.70
2019-04-27T19:31:44.545Z,80.10
2019-04-27T19:34:12.551Z,77.60
2019-04-27T19:36:40.456Z,78.50
2019-04-27T19:39:10.291Z,77.20
2019-04-27T19:41:38.785Z,77.90
2019-04-27T19:44:06.276Z,77.60
2019-04-27T19:46:33.144Z,76.50
2019-04-27T19:49:00.416Z,76.30
2019-04-27T19:51:28.347Z,75.70
2019-04-27T19:53:58.187Z,75.90
2019-04-27T19:56:28.355Z,76.50
2019-04-27T19:59:00.641Z,74.20
2019-04-27T20:01:41.950Z,74.60
2019-04-27T20:04:30.728Z,74.50
2019-04-27T20:06:59.635Z,75.60
2019-04-27T20:09:49.938Z,76.90
2019-04-27T20:12:17.384Z,76.10
2019-04-27T20:14:56.415Z,75.30
2019-04-27T20:17:25.613Z,76.90
2019-04-27T20:19:55.087Z,75.70
2019-04-27T20:22:24.418Z,75.70
2019-04-27T20:24:53.391Z,77.60
2019-04-27T20:27:21.175Z,78.00
2019-04-27T20:29:48.495Z,77.90
2019-04-27T20:32:15.911Z,77.90
2019-04-27T20:34:43.239Z,77.70
2019-04-27T20:37:11.943Z,78.00
2019-04-27T20:39:42.618Z,77.90
2019-04-27T20:42:12.341Z,78.20
2019-04-27T20:44:41.222Z,77.50
2019-04-27T20:47:09.535Z,76.60
2019-04-27T20:49:38.527Z,77.50
2019-04-27T20:52:10.981Z,77.90
2019-04-27T20:54:39.008Z,77.70
2019-04-27T20:57:07.760Z,77.90
2019-04-27T20:59:34.887Z,78.40
2019-04-27T21:02:22.242Z,77.80
2019-04-27T21:05:00.341Z,78.50
2019-04-27T21:07:39.493Z,78.80
2019-04-27T21:10:07.743Z,79.00
2019-04-27T21:12:35.509Z,79.30
2019-04-27T21:15:05.381Z,79.10
2019-04-27T21:17:32.900Z,78.90
2019-04-27T21:20:01.351Z,77.90
2019-04-27T21:22:31.543Z,77.00
2019-04-27T21:24:59.315Z,77.10
2019-04-27T21:27:26.911Z,78.50
2019-04-27T21:29:54.052Z,77.60
2019-04-27T21:32:22.092Z,78.00
2019-04-27T21:34:51.546Z,78.30
2019-04-27T21:37:19.267Z,78.00
2019-04-27T21:39:47.070Z,78.00
2019-04-27T21:42:15.883Z,77.80
2019-04-27T21:44:44.107Z,77.30
2019-04-27T21:47:11.267Z,77.90
2019-04-27T21:49:38.503Z,78.00
2019-04-27T21:52:14.608Z,78.10
2019-04-27T21:54:42.767Z,77.30
2019-04-27T21:57:11.136Z,78.10
2019-04-27T21:59:39.923Z,77.70
2019-04-27T22:02:09.735Z,77.60
2019-04-27T22:04:37.494Z,78.20
2019-04-27T22:07:05.324Z,78.00
2019-04-27T22:09:32.955Z,78.10
2019-04-27T22:12:02.358Z,78.10
2019-04-27T22:14:30.100Z,78.50
2019-04-27T22:16:58.405Z,77.40
2019-04-27T22:19:26.699Z,77.90
2019-04-27T22:21:54.856Z,78.20
2019-04-27T22:24:29.975Z,77.80
2019-04-27T22:26:57.071Z,77.80
2019-04-27T22:29:25.225Z,77.20
2019-04-27T22:31:52.947Z,77.60
2019-04-27T22:34:21.119Z,77.70
2019-04-27T22:36:49.014Z,77.30
2019-04-27T22:39:24.932Z,77.70
2019-04-27T22:42:12.100Z,76.90
2019-04-27T22:44:52.586Z,76.70
2019-04-27T22:47:21.558Z,76.70
2019-04-27T22:49:48.751Z,75.90
2019-04-27T22:52:17.013Z,76.50
2019-04-27T22:54:44.512Z,77.10
2019-04-27T22:57:23.187Z,77.00
2019-04-27T22:59:57.856Z,75.40
2019-04-27T23:02:31.919Z,75.30
2019-04-27T23:05:01.979Z,75.80
2019-04-27T23:07:31.567Z,75.10
2019-04-27T23:10:01.335Z,74.80
2019-04-27T23:12:28.767Z,76.10
2019-04-27T23:14:56.888Z,76.60
2019-04-27T23:17:51.758Z,75.60
2019-04-27T23:20:20.807Z,76.70
2019-04-27T23:22:48.664Z,77.10
2019-04-27T23:25:16.099Z,77.20
2019-04-27T23:27:43.776Z,76.90
2019-04-27T23:30:11.887Z,77.10
2019-04-27T23:32:42.739Z,77.10
2019-04-27T23:35:10.823Z,77.50
2019-04-27T23:37:38.462Z,77.70
2019-04-27T23:40:06.997Z,77.60
2019-04-27T23:42:35.404Z,77.20
2019-04-27T23:45:04.390Z,77.50
2019-04-27T23:47:32.523Z,76.30
2019-04-27T23:50:00.922Z,75.50
2019-04-27T23:52:47.911Z,76.20
2019-04-27T23:55:16.423Z,76.90
2019-04-27T23:57:43.266Z,76.70
